createdAt,value
2022-09-28T00:01:10.738Z,19.75
2022-09-28T00:03:38.776Z,20.70
2022-09-28T00:06:11.160Z,20.20
2022-09-28T00:08:40.953Z,20.40
2022-09-28T00:11:13.787Z,19.20
2022-09-28T00:13:43.027Z,19.17
2022-09-28T00:16:14.050Z,18.90
2022-09-28T00:18:43.052Z,20.40
2022-09-28T00:21:13.394Z,21.30
2022-09-28T00:23:57.769Z,22.50
2022-09-28T00:26:26.372Z,23.13
2022-09-28T00:28:54.620Z,22.95
2022-09-28T00:31:23.711Z,27.45
2022-09-28T00:33:52.586Z,26.88
2022-09-28T00:36:21.019Z,27.83
2022-09-28T00:38:51.687Z,28.40
2022-09-28T00:41:20.020Z,30.48
2022-09-28T00:43:48.103Z,31.52
2022-09-28T00:46:23.155Z,32.15
2022-09-28T00:48:56.161Z,29.27
2022-09-28T00:51:25.735Z,31.48
2022-09-28T00:53:56.849Z,31.02
2022-09-28T00:56:27.666Z,32.47
2022-09-28T00:58:55.722Z,32.53
2022-09-28T01:01:24.240Z,30.45
2022-09-28T01:03:52.323Z,28.05
2022-09-28T01:06:22.696Z,36.85
2022-09-28T01:08:53.178Z,30.85
2022-09-28T01:11:23.256Z,34.47
2022-09-28T01:13:54.434Z,31.02
2022-09-28T01:16:32.136Z,31.13
2022-09-28T01:19:23.380Z,30.40
2022-09-28T01:21:54.648Z,32.03
2022-09-28T01:24:40.550Z,32.00
2022-09-28T01:27:16.519Z,29.27
2022-09-28T01:29:52.990Z,30.30
2022-09-28T01:32:28.898Z,29.65
2022-09-28T01:35:01.190Z,31.40
2022-09-28T01:37:36.816Z,31.00
2022-09-28T01:40:07.411Z,31.13
2022-09-28T01:42:40.663Z,30.02
2022-09-28T01:45:14.300Z,32.72
2022-09-28T01:47:44.051Z,31.98
2022-09-28T01:50:14.139Z,31.92
2022-09-28T01:52:48.936Z,32.47
2022-09-28T01:57:53.855Z,31.50
2022-09-28T02:00:26.249Z,34.13
2022-09-28T02:02:59.486Z,35.65
2022-09-28T02:05:40.681Z,42.33
2022-09-28T02:08:11.978Z,47.65
2022-09-28T02:10:47.524Z,79.22
2022-09-28T02:15:53.008Z,41.88
2022-09-28T02:18:21.297Z,45.15
2022-09-28T02:20:57.908Z,42.78
2022-09-28T02:23:29.522Z,41.38
2022-09-28T02:26:02.955Z,36.55
2022-09-28T02:28:33.029Z,50.70
2022-09-28T02:31:02.332Z,48.17
2022-09-28T02:33:36.112Z,53.00
2022-09-28T02:36:04.790Z,50.92
2022-09-28T02:38:39.043Z,52.28
2022-09-28T02:41:16.602Z,46.80
2022-09-28T02:43:57.332Z,50.83
2022-09-28T02:46:33.678Z,48.22
2022-09-28T02:49:30.129Z,57.55
2022-09-28T02:52:19.705Z,59.13
2022-09-28T02:55:07.895Z,59.45
2022-09-28T02:57:48.349Z,58.28
2022-09-28T03:00:20.888Z,67.70
2022-09-28T03:02:57.494Z,57.92
2022-09-28T03:05:33.276Z,53.65
2022-09-28T03:08:02.951Z,63.42
2022-09-28T03:10:37.358Z,56.55
2022-09-28T03:15:37.333Z,53.00
2022-09-28T03:18:05.794Z,62.30
2022-09-28T03:20:34.755Z,56.38
2022-09-28T03:23:23.798Z,57.60
2022-09-28T03:25:52.245Z,56.10
2022-09-28T03:28:21.349Z,54.03
2022-09-28T03:30:51.039Z,54.63
2022-09-28T03:33:19.853Z,54.28
2022-09-28T03:35:48.894Z,52.15
2022-09-28T03:38:18.291Z,52.50
2022-09-28T03:40:54.027Z,50.95
2022-09-28T03:43:22.481Z,54.70
2022-09-28T03:45:56.471Z,53.13
2022-09-28T03:48:31.221Z,50.83
2022-09-28T03:51:02.854Z,49.78
2022-09-28T03:53:31.526Z,50.35
2022-09-28T03:56:04.639Z,51.72
2022-09-28T03:58:33.619Z,49.67
2022-09-28T04:01:09.948Z,49.72
2022-09-28T04:03:40.981Z,55.15
2022-09-28T04:06:09.102Z,57.72
2022-09-28T04:08:37.216Z,54.17
2022-09-28T04:11:05.258Z,49.67
2022-09-28T04:13:33.750Z,49.53
2022-09-28T04:16:02.959Z,49.35
2022-09-28T04:18:35.668Z,51.78
2022-09-28T04:21:15.671Z,52.58
2022-09-28T04:23:59.521Z,48.42
2022-09-28T04:26:28.655Z,49.92
2022-09-28T04:29:15.368Z,48.03
2022-09-28T04:31:49.561Z,49.90
2022-09-28T04:34:20.975Z,48.35
2022-09-28T04:36:49.916Z,52.90
2022-09-28T04:39:19.340Z,53.17
2022-09-28T04:41:56.626Z,47.72
2022-09-28T04:44:24.600Z,49.08
2022-09-28T04:47:02.888Z,49.38
2022-09-28T04:49:35.416Z,48.42
2022-09-28T04:52:12.545Z,46.08
2022-09-28T04:54:43.925Z,46.08
2022-09-28T04:57:12.344Z,42.00
2022-09-28T04:59:40.429Z,43.13
2022-09-28T05:02:09.162Z,41.08
2022-09-28T05:04:58.841Z,40.20
2022-09-28T05:07:59.802Z,40.70
2022-09-28T05:10:27.876Z,37.95
2022-09-28T05:12:55.987Z,37.10
2022-09-28T05:15:23.987Z,33.30
2022-09-28T05:17:53.783Z,28.92
2022-09-28T05:20:31.374Z,30.20
2022-09-28T05:22:59.723Z,29.50
2022-09-28T05:25:27.758Z,30.10
2022-09-28T05:28:07.905Z,28.85
2022-09-28T05:30:49.748Z,28.23
2022-09-28T05:33:44.364Z,28.25
2022-09-28T05:36:15.656Z,28.95
2022-09-28T05:38:44.408Z,29.63
2022-09-28T05:41:12.776Z,28.13
2022-09-28T05:43:40.944Z,26.40
2022-09-28T05:46:09.023Z,26.20
2022-09-28T05:48:40.439Z,24.88
2022-09-28T05:51:10.209Z,24.30
2022-09-28T05:53:39.520Z,27.75
2022-09-28T05:56:07.857Z,26.77
2022-09-28T05:58:37.752Z,28.00
2022-09-28T06:01:06.463Z,25.95
2022-09-28T06:03:34.545Z,25.85
2022-09-28T06:06:03.333Z,24.25
2022-09-28T06:08:32.881Z,24.27
2022-09-28T06:11:20.544Z,20.98
2022-09-28T06:13:48.767Z,20.33
2022-09-28T06:16:17.653Z,23.50
2022-09-28T06:18:46.133Z,21.90
2022-09-28T06:21:26.352Z,22.85
2022-09-28T06:23:55.168Z,21.80
2022-09-28T06:26:24.839Z,22.13
2022-09-28T06:28:52.832Z,22.10
2022-09-28T06:31:23.861Z,23.17
2022-09-28T06:33:52.381Z,22.50
2022-09-28T06:36:21.176Z,21.35
2022-09-28T06:38:50.940Z,19.17
2022-09-28T06:41:19.647Z,17.13
2022-09-28T06:43:50.304Z,17.42
2022-09-28T06:46:38.299Z,16.85
2022-09-28T06:49:27.739Z,16.75
2022-09-28T06:52:12.067Z,16.58
2022-09-28T06:55:09.676Z,16.40
2022-09-28T06:57:42.516Z,15.55
2022-09-28T07:00:13.498Z,13.10
2022-09-28T07:02:44.412Z,13.90
2022-09-28T07:05:43.271Z,12.35
2022-09-28T07:08:29.884Z,13.10
2022-09-28T07:11:07.054Z,12.38
2022-09-28T07:13:51.522Z,12.38
2022-09-28T07:16:27.857Z,12.23
2022-09-28T07:19:00.960Z,10.55
2022-09-28T07:21:30.671Z,10.15
2022-09-28T07:24:02.341Z,9.87
2022-09-28T07:26:59.846Z,10.82
2022-09-28T07:30:00.196Z,9.80
2022-09-28T07:32:52.666Z,9.38
2022-09-28T07:35:30.563Z,8.05
2022-09-28T07:38:01.443Z,7.85
2022-09-28T07:40:48.567Z,6.80
2022-09-28T07:43:20.517Z,5.75
2022-09-28T07:45:51.835Z,6.00
2022-09-28T07:48:22.327Z,5.30
2022-09-28T07:50:51.859Z,4.80
2022-09-28T07:53:28.763Z,4.65
2022-09-28T07:56:12.093Z,4.65
2022-09-28T07:58:50.009Z,3.78
2022-09-28T08:01:49.439Z,3.45
2022-09-28T08:04:20.628Z,4.10
2022-09-28T08:06:48.583Z,3.30
2022-09-28T08:09:17.026Z,3.22
2022-09-28T08:12:05.079Z,2.60
2022-09-28T08:15:10.520Z,2.25
2022-09-28T08:17:48.195Z,2.20
2022-09-28T08:20:37.366Z,2.10
2022-09-28T08:23:05.892Z,1.85
2022-09-28T08:25:34.748Z,1.67
2022-09-28T08:28:04.753Z,1.58
2022-09-28T08:30:35.270Z,1.80
2022-09-28T08:33:21.497Z,1.35
2022-09-28T08:35:57.487Z,2.28
2022-09-28T08:38:48.314Z,1.80
2022-09-28T08:41:45.158Z,1.88
2022-09-28T08:44:41.588Z,2.47
2022-09-28T08:47:33.293Z,2.67
2022-09-28T08:50:32.085Z,3.20
2022-09-28T08:56:15.931Z,3.47
2022-09-28T08:58:51.883Z,4.82
2022-09-28T09:01:21.671Z,3.83
2022-09-28T09:03:52.399Z,4.45
2022-09-28T09:06:56.040Z,6.47
2022-09-28T09:09:49.037Z,7.03
2022-09-28T09:12:29.728Z,10.07
2022-09-28T09:15:26.397Z,9.43
2022-09-28T09:18:10.569Z,10.60
2022-09-28T09:20:54.685Z,13.18
2022-09-28T09:23:39.451Z,12.40
2022-09-28T09:26:21.546Z,12.93
2022-09-28T09:29:18.708Z,11.27
2022-09-28T09:32:16.505Z,10.55
2022-09-28T09:35:26.273Z,9.27
2022-09-28T09:38:33.509Z,9.80
2022-09-28T09:41:37.454Z,12.20
2022-09-28T09:45:02.361Z,11.02
2022-09-28T09:47:49.520Z,12.05
2022-09-28T09:50:30.212Z,13.52
2022-09-28T09:53:04.337Z,12.07
2022-09-28T09:55:40.294Z,10.95
2022-09-28T09:58:37.257Z,12.35
2022-09-28T10:01:22.152Z,12.57
2022-09-28T10:04:16.956Z,13.35
2022-09-28T10:06:45.361Z,12.05
2022-09-28T10:09:21.721Z,12.40
2022-09-28T10:11:52.018Z,11.43
2022-09-28T10:14:24.063Z,12.55
2022-09-28T10:17:08.661Z,13.55
2022-09-28T10:20:16.811Z,10.73
2022-09-28T10:23:18.672Z,10.60
2022-09-28T10:25:49.967Z,9.82
2022-09-28T10:28:23.762Z,9.40
2022-09-28T10:30:53.239Z,9.80
2022-09-28T10:33:32.520Z,9.55
2022-09-28T10:36:01.673Z,8.98
2022-09-28T10:38:30.973Z,8.23
2022-09-28T10:41:13.423Z,6.35
2022-09-28T10:44:06.349Z,5.13
2022-09-28T10:47:01.481Z,4.85
2022-09-28T10:49:44.395Z,4.53
2022-09-28T10:52:37.345Z,5.20
2022-09-28T10:55:26.500Z,4.53
2022-09-28T10:57:54.944Z,4.13
2022-09-28T11:00:33.180Z,3.10
2022-09-28T11:03:23.514Z,3.75
2022-09-28T11:05:57.492Z,3.28
2022-09-28T11:08:30.495Z,3.97
2022-09-28T11:11:06.882Z,3.42
2022-09-28T11:13:43.846Z,3.53
2022-09-28T11:16:26.023Z,4.13
2022-09-28T11:18:56.873Z,4.72
2022-09-28T11:21:28.120Z,4.25
2022-09-28T11:24:07.932Z,3.72
2022-09-28T11:26:43.927Z,3.70
2022-09-28T11:29:26.829Z,3.60
2022-09-28T11:32:18.688Z,2.40
2022-09-28T11:35:20.804Z,2.40
2022-09-28T11:38:01.026Z,2.70
2022-09-28T11:41:00.983Z,2.22
2022-09-28T11:43:48.228Z,3.40
2022-09-28T11:46:24.069Z,2.83
2022-09-28T11:49:00.507Z,2.92
2022-09-28T11:51:35.500Z,2.53
2022-09-28T11:54:14.435Z,2.88
2022-09-28T11:56:46.515Z,3.47
2022-09-28T11:59:21.315Z,3.50
2022-09-28T12:01:58.058Z,2.78
2022-09-28T12:04:43.004Z,4.72
2022-09-28T12:07:19.935Z,2.30
2022-09-28T12:09:55.866Z,2.10
2022-09-28T12:12:29.037Z,2.90
2022-09-28T12:15:04.009Z,3.10
2022-09-28T12:17:37.319Z,3.65
2022-09-28T12:20:17.794Z,3.28
2022-09-28T12:22:52.715Z,3.42
2022-09-28T12:25:23.688Z,3.55
2022-09-28T12:27:55.131Z,3.42
2022-09-28T12:30:25.269Z,3.38
2022-09-28T12:32:59.551Z,3.38
2022-09-28T12:35:41.196Z,3.60
2022-09-28T12:38:27.916Z,4.13
2022-09-28T12:41:02.736Z,4.88
2022-09-28T12:43:54.637Z,4.60
2022-09-28T12:46:42.264Z,4.20
2022-09-28T12:52:27.226Z,4.95
2022-09-28T12:55:31.990Z,4.93
2022-09-28T12:58:15.295Z,5.43
2022-09-28T13:00:57.130Z,5.82
2022-09-28T13:03:46.764Z,6.20
2022-09-28T13:06:29.794Z,7.10
2022-09-28T13:09:17.119Z,6.25
2022-09-28T13:12:06.197Z,7.05
2022-09-28T13:14:57.990Z,7.78
2022-09-28T13:17:40.632Z,9.05
2022-09-28T13:20:22.050Z,9.20
2022-09-28T13:22:58.187Z,9.02
2022-09-28T13:25:29.352Z,8.05
2022-09-28T13:28:03.483Z,8.15
2022-09-28T13:30:33.442Z,7.65
2022-09-28T13:33:05.130Z,7.55
2022-09-28T13:35:35.072Z,7.70
2022-09-28T13:38:32.078Z,7.85
2022-09-28T13:41:16.955Z,7.60
2022-09-28T13:44:05.882Z,7.45
2022-09-28T13:46:46.080Z,7.40
2022-09-28T13:49:19.385Z,6.32
2022-09-28T13:52:02.709Z,6.00
2022-09-28T13:54:51.449Z,5.95
2022-09-28T13:57:25.374Z,5.90
2022-09-28T14:00:03.602Z,5.90
2022-09-28T14:02:45.330Z,5.18
2022-09-28T14:05:41.923Z,6.60
2022-09-28T14:08:38.935Z,5.80
2022-09-28T14:11:42.411Z,6.00
2022-09-28T14:14:48.416Z,4.55
2022-09-28T14:18:01.974Z,4.85
2022-09-28T14:20:32.472Z,5.20
2022-09-28T14:23:38.935Z,4.35
2022-09-28T14:26:33.127Z,4.97
2022-09-28T14:29:12.697Z,5.25
2022-09-28T14:31:45.473Z,4.68
2022-09-28T14:34:35.218Z,5.40
2022-09-28T14:37:35.172Z,4.10
2022-09-28T14:40:34.564Z,4.40
2022-09-28T14:43:30.821Z,4.82
2022-09-28T14:46:31.767Z,4.22
2022-09-28T14:49:03.438Z,4.70
2022-09-28T14:52:08.163Z,4.43
2022-09-28T14:54:50.075Z,4.78
2022-09-28T14:57:20.996Z,4.50
2022-09-28T14:59:49.313Z,5.35
2022-09-28T15:02:26.377Z,5.30
2022-09-28T15:05:00.054Z,4.70
2022-09-28T15:07:32.855Z,5.10
2022-09-28T15:10:03.276Z,4.78
2022-09-28T15:12:32.262Z,5.00
2022-09-28T15:15:02.407Z,4.80
2022-09-28T15:17:38.464Z,4.85
2022-09-28T15:20:24.409Z,4.90
2022-09-28T15:22:57.036Z,4.47
2022-09-28T15:25:28.562Z,4.07
2022-09-28T15:27:58.281Z,3.92
2022-09-28T15:30:28.796Z,4.07
2022-09-28T15:33:18.410Z,4.20
2022-09-28T15:35:49.877Z,5.20
2022-09-28T15:38:18.472Z,4.78
2022-09-28T15:40:48.462Z,4.63
2022-09-28T15:43:27.153Z,3.83
2022-09-28T15:46:05.418Z,3.65
2022-09-28T15:48:41.892Z,3.25
2022-09-28T15:51:11.684Z,4.30
2022-09-28T15:53:47.076Z,4.60
2022-09-28T15:56:16.604Z,4.60
2022-09-28T15:58:44.850Z,5.07
2022-09-28T16:01:27.167Z,4.78
2022-09-28T16:03:55.459Z,5.45
2022-09-28T16:06:23.841Z,5.10
2022-09-28T16:08:51.864Z,4.78
2022-09-28T16:11:24.290Z,4.93
2022-09-28T16:14:01.536Z,5.18
2022-09-28T16:16:31.894Z,5.43
2022-09-28T16:19:01.647Z,5.40
2022-09-28T16:21:41.470Z,5.53
2022-09-28T16:24:20.809Z,5.20
2022-09-28T16:26:58.496Z,6.10
2022-09-28T16:29:29.357Z,6.50
2022-09-28T16:31:57.588Z,5.72
2022-09-28T16:34:28.546Z,5.30
2022-09-28T16:36:56.643Z,5.65
2022-09-28T16:39:25.461Z,5.05
2022-09-28T16:42:01.802Z,5.10
2022-09-28T16:44:31.809Z,6.00
2022-09-28T16:47:01.435Z,10.80
2022-09-28T16:49:32.302Z,15.63
2022-09-28T16:52:00.390Z,17.52
2022-09-28T16:54:47.739Z,13.30
2022-09-28T16:57:17.323Z,9.55
2022-09-28T16:59:45.501Z,7.80
2022-09-28T17:02:35.321Z,8.65
2022-09-28T17:05:07.161Z,8.02
2022-09-28T17:07:35.585Z,9.63
2022-09-28T17:10:03.670Z,12.88
2022-09-28T17:12:33.041Z,15.15
2022-09-28T17:15:01.148Z,10.88
2022-09-28T17:17:31.416Z,9.82
2022-09-28T17:19:59.579Z,8.85
2022-09-28T17:22:27.568Z,9.18
2022-09-28T17:24:55.597Z,9.48
2022-09-28T17:27:23.641Z,11.32
2022-09-28T17:29:53.055Z,10.88
2022-09-28T17:32:21.250Z,10.25
2022-09-28T17:35:00.715Z,13.85
2022-09-28T17:37:36.170Z,14.73
2022-09-28T17:40:13.041Z,12.82
2022-09-28T17:42:41.026Z,11.70
2022-09-28T17:45:10.587Z,14.25
2022-09-28T17:47:38.671Z,13.02
2022-09-28T17:50:21.077Z,13.90
2022-09-28T17:52:52.044Z,15.90
2022-09-28T17:55:21.774Z,18.45
2022-09-28T17:57:50.168Z,26.38
2022-09-28T18:00:19.695Z,19.65
2022-09-28T18:02:48.257Z,19.52
2022-09-28T18:05:16.326Z,16.30
2022-09-28T18:07:47.698Z,15.45
2022-09-28T18:10:19.517Z,17.77
2022-09-28T18:12:47.493Z,18.50
2022-09-28T18:15:16.222Z,18.50
2022-09-28T18:17:45.836Z,18.40
2022-09-28T18:20:15.258Z,17.15
2022-09-28T18:22:43.330Z,19.60
2022-09-28T18:25:11.785Z,18.83
2022-09-28T18:27:39.853Z,20.98
2022-09-28T18:30:08.804Z,22.70
2022-09-28T18:32:37.858Z,22.13
2022-09-28T18:35:10.123Z,23.33
2022-09-28T18:37:39.800Z,21.92
2022-09-28T18:40:09.477Z,23.67
2022-09-28T18:42:37.645Z,24.17
2022-09-28T18:45:07.715Z,24.63
2022-09-28T18:47:35.892Z,22.25
2022-09-28T18:50:04.376Z,23.67
2022-09-28T18:52:36.188Z,24.15
2022-09-28T18:55:04.897Z,23.67
2022-09-28T18:57:33.557Z,26.45
2022-09-28T19:00:01.850Z,23.02
2022-09-28T19:02:29.921Z,24.30
2022-09-28T19:04:58.306Z,23.67
2022-09-28T19:07:26.944Z,22.83
2022-09-28T19:09:56.349Z,21.95
2022-09-28T19:12:24.879Z,22.73
2022-09-28T19:14:52.954Z,24.42
2022-09-28T19:17:20.948Z,26.05
2022-09-28T19:19:48.942Z,24.35
2022-09-28T19:22:17.771Z,24.98
2022-09-28T19:24:45.826Z,24.23
2022-09-28T19:27:15.194Z,23.05
2022-09-28T19:29:43.228Z,24.95
2022-09-28T19:32:12.169Z,25.90
2022-09-28T19:34:40.229Z,24.52
2022-09-28T19:37:08.186Z,25.45
2022-09-28T19:39:36.234Z,24.20
2022-09-28T19:42:04.273Z,30.05
2022-09-28T19:44:35.746Z,25.30
2022-09-28T19:47:06.910Z,25.30
2022-09-28T19:49:37.173Z,24.00
2022-09-28T19:52:13.173Z,25.83
2022-09-28T19:54:44.798Z,28.48
2022-09-28T19:57:14.437Z,27.13
2022-09-28T19:59:43.888Z,26.83
2022-09-28T20:02:12.288Z,27.02
2022-09-28T20:04:40.445Z,26.63
2022-09-28T20:07:08.424Z,27.50
2022-09-28T20:09:36.467Z,26.20
2022-09-28T20:12:04.658Z,28.65
2022-09-28T20:14:36.560Z,27.38
2022-09-28T20:17:08.964Z,27.85
2022-09-28T20:19:36.978Z,25.55
2022-09-28T20:22:05.127Z,26.83
2022-09-28T20:24:33.223Z,27.38
2022-09-28T20:27:01.896Z,26.60
2022-09-28T20:29:31.601Z,25.88
2022-09-28T20:32:00.368Z,26.65
2022-09-28T20:34:29.803Z,26.30
2022-09-28T20:36:57.938Z,27.33
2022-09-28T20:39:26.099Z,25.77
2022-09-28T20:41:55.558Z,25.52
2022-09-28T20:44:23.559Z,26.83
2022-09-28T20:46:52.128Z,24.98
2022-09-28T20:49:20.410Z,25.35
2022-09-28T20:51:49.846Z,26.83
2022-09-28T20:54:18.028Z,24.33
2022-09-28T20:56:48.166Z,25.25
2022-09-28T20:59:16.403Z,25.13
2022-09-28T21:01:44.729Z,24.45
2022-09-28T21:04:12.898Z,24.70
2022-09-28T21:06:42.799Z,23.50
2022-09-28T21:09:13.134Z,23.88
2022-09-28T21:11:41.623Z,23.88
2022-09-28T21:14:10.743Z,24.20
2022-09-28T21:16:39.561Z,24.70
2022-09-28T21:19:07.586Z,24.95
2022-09-28T21:21:35.842Z,27.55
2022-09-28T21:24:04.097Z,26.20
2022-09-28T21:26:35.026Z,27.40
2022-09-28T21:29:05.320Z,27.58
2022-09-28T21:31:38.490Z,27.60
2022-09-28T21:34:06.828Z,26.38
2022-09-28T21:36:35.137Z,25.67
2022-09-28T21:39:06.011Z,24.60
2022-09-28T21:41:39.254Z,25.10
2022-09-28T21:44:08.128Z,24.20
2022-09-28T21:46:36.631Z,25.10
2022-09-28T21:49:07.300Z,24.70
2022-09-28T21:51:35.963Z,24.80
2022-09-28T21:54:04.206Z,23.80
2022-09-28T21:56:32.467Z,23.33
2022-09-28T21:59:02.387Z,21.90
2022-09-28T22:01:31.450Z,25.50
2022-09-28T22:03:59.661Z,24.70
2022-09-28T22:06:29.094Z,23.30
2022-09-28T22:08:57.175Z,24.33
2022-09-28T22:11:27.224Z,21.55
2022-09-28T22:13:57.051Z,22.33
2022-09-28T22:16:28.421Z,22.58
2022-09-28T22:18:56.567Z,21.75
2022-09-28T22:21:25.866Z,22.08
2022-09-28T22:24:05.407Z,22.63
2022-09-28T22:26:35.307Z,22.98
2022-09-28T22:29:05.814Z,23.60
2022-09-28T22:31:37.065Z,23.55
2022-09-28T22:34:05.331Z,23.73
2022-09-28T22:36:33.725Z,23.38
2022-09-28T22:39:02.621Z,24.90
2022-09-28T22:41:32.047Z,22.50
2022-09-28T22:44:00.152Z,25.17
2022-09-28T22:46:29.467Z,23.75
2022-09-28T22:49:00.167Z,24.58
2022-09-28T22:51:29.501Z,24.00
2022-09-28T22:53:58.093Z,22.90
2022-09-28T22:56:26.213Z,22.80
2022-09-28T22:58:54.640Z,23.17
2022-09-28T23:01:24.450Z,23.52
2022-09-28T23:03:54.344Z,22.88
2022-09-28T23:06:26.976Z,22.60
2022-09-28T23:08:55.134Z,22.02
2022-09-28T23:11:23.320Z,21.58
2022-09-28T23:13:52.596Z,21.42
2022-09-28T23:16:23.462Z,22.05
2022-09-28T23:18:53.670Z,21.80
2022-09-28T23:21:24.471Z,19.75
2022-09-28T23:23:54.640Z,19.63
2022-09-28T23:26:24.282Z,19.92
2022-09-28T23:29:00.934Z,20.13
2022-09-28T23:31:31.101Z,20.20
2022-09-28T23:34:00.054Z,19.00
2022-09-28T23:36:29.743Z,19.25
2022-09-28T23:38:57.943Z,20.30
2022-09-28T23:41:25.925Z,21.60
2022-09-28T23:43:53.995Z,18.98
2022-09-28T23:46:22.058Z,19.58
2022-09-28T23:48:50.928Z,19.05
2022-09-28T23:51:19.132Z,19.20
2022-09-28T23:53:48.654Z,19.85
2022-09-28T23:56:16.626Z,19.95
2022-09-28T23:58:45.168Z,20.50
